sensor_id;sensor_type;location;lat;lon;timestamp;pressure;altitude;pressure_sealevel;temperature;humidity
11415;BME280;5763;42.714;23.244;2022-12-18T00:00:46;95309.38;;;7.81;92.61
11415;BME280;5763;42.714;23.244;2022-12-18T00:03:14;95311.53;;;7.89;92.01
11415;BME280;5763;42.714;23.244;2022-12-18T00:05:46;95316.88;;;7.96;92.52
11415;BME280;5763;42.714;23.244;2022-12-18T00:08:13;95319.78;;;7.86;91.72
11415;BME280;5763;42.714;23.244;2022-12-18T00:10:41;95325.56;;;7.88;91.53
11415;BME280;5763;42.714;23.244;2022-12-18T00:13:08;95324.13;;;7.83;90.48
11415;BME280;5763;42.714;23.244;2022-12-18T00:15:36;95324.59;;;7.78;90.71
11415;BME280;5763;42.714;23.244;2022-12-18T00:18:03;95336.19;;;7.82;91.02
11415;BME280;5763;42.714;23.244;2022-12-18T00:20:31;95335.97;;;7.73;90.60
11415;BME280;5763;42.714;23.244;2022-12-18T00:22:57;95328.63;;;7.70;91.90
11415;BME280;5763;42.714;23.244;2022-12-18T00:25:24;95354.69;;;7.71;89.97
11415;BME280;5763;42.714;23.244;2022-12-18T00:27:52;95335.84;;;7.57;90.25
11415;BME280;5763;42.714;23.244;2022-12-18T00:30:19;95346.50;;;7.48;90.69
11415;BME280;5763;42.714;23.244;2022-12-18T00:32:46;95348.47;;;7.48;90.58
11415;BME280;5763;42.714;23.244;2022-12-18T00:35:12;95336.00;;;7.47;90.83
11415;BME280;5763;42.714;23.244;2022-12-18T00:37:39;95360.31;;;7.61;90.50
11415;BME280;5763;42.714;23.244;2022-12-18T00:40:07;95367.34;;;7.58;89.80
11415;BME280;5763;42.714;23.244;2022-12-18T00:42:34;95361.56;;;7.56;89.22
11415;BME280;5763;42.714;23.244;2022-12-18T00:45:20;95366.94;;;7.60;89.15
11415;BME280;5763;42.714;23.244;2022-12-18T00:47:46;95365.41;;;7.59;89.54
11415;BME280;5763;42.714;23.244;2022-12-18T00:50:13;95365.22;;;7.46;88.86
11415;BME280;5763;42.714;23.244;2022-12-18T00:52:40;95364.03;;;7.47;89.28
11415;BME280;5763;42.714;23.244;2022-12-18T00:55:08;95359.03;;;7.42;89.44
11415;BME280;5763;42.714;23.244;2022-12-18T00:57:35;95373.72;;;7.25;89.65
11415;BME280;5763;42.714;23.244;2022-12-18T01:00:03;95384.69;;;7.18;90.24
11415;BME280;5763;42.714;23.244;2022-12-18T01:02:31;95375.03;;;7.14;90.31
11415;BME280;5763;42.714;23.244;2022-12-18T01:04:58;95386.38;;;7.09;90.74
11415;BME280;5763;42.714;23.244;2022-12-18T01:07:25;95373.50;;;7.13;90.58
11415;BME280;5763;42.714;23.244;2022-12-18T01:09:51;95376.56;;;7.15;90.52
11415;BME280;5763;42.714;23.244;2022-12-18T01:12:18;95385.13;;;7.13;90.19
11415;BME280;5763;42.714;23.244;2022-12-18T01:14:45;95385.72;;;7.01;90.18
11415;BME280;5763;42.714;23.244;2022-12-18T01:17:12;95403.22;;;7.00;91.07
11415;BME280;5763;42.714;23.244;2022-12-18T01:19:40;95385.38;;;6.96;90.47
11415;BME280;5763;42.714;23.244;2022-12-18T01:22:07;95387.06;;;6.86;90.59
11415;BME280;5763;42.714;23.244;2022-12-18T01:24:34;95394.00;;;6.91;90.48
11415;BME280;5763;42.714;23.244;2022-12-18T01:27:00;95397.97;;;6.86;91.23
11415;BME280;5763;42.714;23.244;2022-12-18T01:29:27;95387.81;;;6.90;90.52
11415;BME280;5763;42.714;23.244;2022-12-18T01:31:55;95395.78;;;7.04;90.20
11415;BME280;5763;42.714;23.244;2022-12-18T01:34:22;95391.72;;;6.86;90.05
11415;BME280;5763;42.714;23.244;2022-12-18T01:36:50;95397.59;;;6.84;89.92
11415;BME280;5763;42.714;23.244;2022-12-18T01:39:18;95400.69;;;6.86;90.11
11415;BME280;5763;42.714;23.244;2022-12-18T01:41:45;95404.94;;;6.87;89.91
11415;BME280;5763;42.714;23.244;2022-12-18T01:44:54;95398.75;;;6.83;89.97
11415;BME280;5763;42.714;23.244;2022-12-18T01:47:23;95407.34;;;6.82;89.93
11415;BME280;5763;42.714;23.244;2022-12-18T01:49:51;95406.97;;;6.80;90.40
11415;BME280;5763;42.714;23.244;2022-12-18T01:52:21;95410.91;;;6.75;89.66
11415;BME280;5763;42.714;23.244;2022-12-18T01:54:50;95402.81;;;6.72;90.08
11415;BME280;5763;42.714;23.244;2022-12-18T01:57:18;95415.28;;;6.69;90.46
11415;BME280;5763;42.714;23.244;2022-12-18T01:59:49;95411.72;;;6.72;90.65
11415;BME280;5763;42.714;23.244;2022-12-18T02:02:17;95405.66;;;6.61;90.56
11415;BME280;5763;42.714;23.244;2022-12-18T02:04:44;95417.59;;;6.67;90.36
11415;BME280;5763;42.714;23.244;2022-12-18T02:07:16;95416.00;;;6.73;89.87
11415;BME280;5763;42.714;23.244;2022-12-18T02:09:47;95426.06;;;6.76;88.99
11415;BME280;5763;42.714;23.244;2022-12-18T02:12:19;95421.56;;;6.63;89.35
11415;BME280;5763;42.714;23.244;2022-12-18T02:14:51;95416.75;;;6.74;89.77
11415;BME280;5763;42.714;23.244;2022-12-18T02:17:22;95429.59;;;6.73;89.37
11415;BME280;5763;42.714;23.244;2022-12-18T02:20:02;95433.25;;;6.60;89.18
11415;BME280;5763;42.714;23.244;2022-12-18T02:22:39;95434.81;;;6.57;89.96
11415;BME280;5763;42.714;23.244;2022-12-18T02:25:27;95436.25;;;6.69;90.30
11415;BME280;5763;42.714;23.244;2022-12-18T02:27:59;95436.66;;;6.67;89.50
11415;BME280;5763;42.714;23.244;2022-12-18T02:30:30;95443.31;;;6.63;89.53
11415;BME280;5763;42.714;23.244;2022-12-18T02:32:57;95441.00;;;6.61;89.93
11415;BME280;5763;42.714;23.244;2022-12-18T02:35:29;95441.78;;;6.62;89.71
11415;BME280;5763;42.714;23.244;2022-12-18T02:37:57;95444.16;;;6.56;90.17
11415;BME280;5763;42.714;23.244;2022-12-18T02:40:26;95441.81;;;6.58;91.07
11415;BME280;5763;42.714;23.244;2022-12-18T02:42:54;95452.56;;;6.69;90.01
11415;BME280;5763;42.714;23.244;2022-12-18T02:45:23;95444.81;;;6.67;89.18
11415;BME280;5763;42.714;23.244;2022-12-18T02:47:50;95454.97;;;6.63;89.94
11415;BME280;5763;42.714;23.244;2022-12-18T02:50:24;95452.50;;;6.72;89.77
11415;BME280;5763;42.714;23.244;2022-12-18T02:53:01;95450.69;;;6.62;89.41
11415;BME280;5763;42.714;23.244;2022-12-18T02:55:42;95460.03;;;6.61;89.92
11415;BME280;5763;42.714;23.244;2022-12-18T02:58:15;95465.47;;;6.61;89.53
11415;BME280;5763;42.714;23.244;2022-12-18T03:00:50;95454.22;;;6.59;89.24
11415;BME280;5763;42.714;23.244;2022-12-18T03:03:24;95462.84;;;6.54;89.21
11415;BME280;5763;42.714;23.244;2022-12-18T03:05:57;95440.81;;;6.42;89.59
11415;BME280;5763;42.714;23.244;2022-12-18T03:08:28;95449.69;;;6.49;89.57
11415;BME280;5763;42.714;23.244;2022-12-18T03:10:58;95456.69;;;6.47;89.69
11415;BME280;5763;42.714;23.244;2022-12-18T03:13:27;95461.75;;;6.45;89.16
11415;BME280;5763;42.714;23.244;2022-12-18T03:15:59;95456.84;;;6.33;90.01
11415;BME280;5763;42.714;23.244;2022-12-18T03:18:30;95452.22;;;6.30;90.30
11415;BME280;5763;42.714;23.244;2022-12-18T03:21:04;95467.00;;;6.25;90.24
11415;BME280;5763;42.714;23.244;2022-12-18T03:23:34;95473.66;;;6.21;90.01
11415;BME280;5763;42.714;23.244;2022-12-18T03:26:05;95470.94;;;6.21;89.86
11415;BME280;5763;42.714;23.244;2022-12-18T03:28:36;95483.69;;;6.27;88.70
11415;BME280;5763;42.714;23.244;2022-12-18T03:31:08;95484.56;;;6.17;88.32
11415;BME280;5763;42.714;23.244;2022-12-18T03:33:39;95500.44;;;6.22;87.84
11415;BME280;5763;42.714;23.244;2022-12-18T03:36:07;95488.47;;;6.13;87.57
11415;BME280;5763;42.714;23.244;2022-12-18T03:38:34;95507.81;;;6.22;87.16
11415;BME280;5763;42.714;23.244;2022-12-18T03:41:06;95494.13;;;6.32;87.16
11415;BME280;5763;42.714;23.244;2022-12-18T03:43:41;95497.22;;;6.34;86.94
11415;BME280;5763;42.714;23.244;2022-12-18T03:46:17;95505.75;;;6.33;86.89
11415;BME280;5763;42.714;23.244;2022-12-18T03:48:48;95517.44;;;6.30;87.27
11415;BME280;5763;42.714;23.244;2022-12-18T03:51:24;95520.19;;;6.26;86.28
11415;BME280;5763;42.714;23.244;2022-12-18T03:53:55;95520.25;;;6.19;86.33
11415;BME280;5763;42.714;23.244;2022-12-18T03:56:26;95509.09;;;6.07;86.84
11415;BME280;5763;42.714;23.244;2022-12-18T03:58:56;95509.38;;;6.19;86.72
11415;BME280;5763;42.714;23.244;2022-12-18T04:01:30;95509.81;;;6.14;86.15
11415;BME280;5763;42.714;23.244;2022-12-18T04:03:59;95514.47;;;6.14;85.33
11415;BME280;5763;42.714;23.244;2022-12-18T04:06:28;95513.75;;;6.06;85.19
11415;BME280;5763;42.714;23.244;2022-12-18T04:08:56;95521.13;;;6.06;85.16
11415;BME280;5763;42.714;23.244;2022-12-18T04:11:23;95526.19;;;6.07;83.83
11415;BME280;5763;42.714;23.244;2022-12-18T04:13:50;95529.25;;;6.09;83.79
11415;BME280;5763;42.714;23.244;2022-12-18T04:16:21;95523.47;;;6.04;83.88
11415;BME280;5763;42.714;23.244;2022-12-18T04:18:49;95541.66;;;6.10;83.47
11415;BME280;5763;42.714;23.244;2022-12-18T04:21:16;95548.69;;;6.04;83.68
11415;BME280;5763;42.714;23.244;2022-12-18T04:23:43;95548.75;;;5.97;83.65
11415;BME280;5763;42.714;23.244;2022-12-18T04:26:10;95555.72;;;5.98;82.76
11415;BME280;5763;42.714;23.244;2022-12-18T04:28:37;95563.53;;;5.96;82.54
11415;BME280;5763;42.714;23.244;2022-12-18T04:31:04;95571.22;;;6.01;81.93
11415;BME280;5763;42.714;23.244;2022-12-18T04:33:30;95572.81;;;5.95;81.79
11415;BME280;5763;42.714;23.244;2022-12-18T04:35:58;95568.19;;;5.92;81.35
11415;BME280;5763;42.714;23.244;2022-12-18T04:38:25;95585.72;;;5.77;81.16
11415;BME280;5763;42.714;23.244;2022-12-18T04:40:52;95579.91;;;5.82;81.10
11415;BME280;5763;42.714;23.244;2022-12-18T04:43:19;95590.34;;;5.87;80.89
11415;BME280;5763;42.714;23.244;2022-12-18T04:45:46;95591.53;;;5.86;80.14
11415;BME280;5763;42.714;23.244;2022-12-18T04:48:12;95580.66;;;5.83;80.16
11415;BME280;5763;42.714;23.244;2022-12-18T04:50:39;95581.06;;;5.74;79.98
11415;BME280;5763;42.714;23.244;2022-12-18T04:53:07;95595.47;;;5.64;80.67
11415;BME280;5763;42.714;23.244;2022-12-18T04:55:34;95611.81;;;5.54;80.82
11415;BME280;5763;42.714;23.244;2022-12-18T04:58:00;95605.97;;;5.55;80.87
11415;BME280;5763;42.714;23.244;2022-12-18T05:00:27;95590.56;;;5.38;81.50
11415;BME280;5763;42.714;23.244;2022-12-18T05:02:54;95607.97;;;5.44;82.45
11415;BME280;5763;42.714;23.244;2022-12-18T05:05:21;95611.50;;;5.34;82.77
11415;BME280;5763;42.714;23.244;2022-12-18T05:07:47;95615.38;;;5.40;83.04
11415;BME280;5763;42.714;23.244;2022-12-18T05:10:16;95625.03;;;5.48;82.83
11415;BME280;5763;42.714;23.244;2022-12-18T05:12:43;95618.06;;;5.47;82.96
11415;BME280;5763;42.714;23.244;2022-12-18T05:15:38;95636.69;;;5.45;83.36
11415;BME280;5763;42.714;23.244;2022-12-18T05:18:07;95638.22;;;5.46;83.57
11415;BME280;5763;42.714;23.244;2022-12-18T05:20:34;95637.00;;;5.58;83.35
11415;BME280;5763;42.714;23.244;2022-12-18T05:23:01;95638.16;;;5.64;82.47
11415;BME280;5763;42.714;23.244;2022-12-18T05:25:28;95655.97;;;5.65;81.89
11415;BME280;5763;42.714;23.244;2022-12-18T05:27:54;95654.44;;;5.57;81.48
11415;BME280;5763;42.714;23.244;2022-12-18T05:30:21;95656.72;;;5.72;80.27
11415;BME280;5763;42.714;23.244;2022-12-18T05:32:49;95665.25;;;5.74;79.30
11415;BME280;5763;42.714;23.244;2022-12-18T05:35:16;95661.00;;;5.73;79.55
11415;BME280;5763;42.714;23.244;2022-12-18T05:37:43;95650.88;;;5.77;79.60
11415;BME280;5763;42.714;23.244;2022-12-18T05:40:11;95681.56;;;5.67;79.41
11415;BME280;5763;42.714;23.244;2022-12-18T05:42:37;95662.97;;;5.55;78.93
11415;BME280;5763;42.714;23.244;2022-12-18T05:45:05;95682.41;;;5.54;78.62
11415;BME280;5763;42.714;23.244;2022-12-18T05:47:33;95668.88;;;5.40;78.79
11415;BME280;5763;42.714;23.244;2022-12-18T05:50:01;95678.53;;;5.44;79.12
11415;BME280;5763;42.714;23.244;2022-12-18T05:52:27;95680.09;;;5.38;79.64
11415;BME280;5763;42.714;23.244;2022-12-18T05:54:54;95681.28;;;5.37;80.20
11415;BME280;5763;42.714;23.244;2022-12-18T05:57:21;95686.31;;;5.42;79.96
11415;BME280;5763;42.714;23.244;2022-12-18T05:59:47;95682.03;;;5.48;80.16
11415;BME280;5763;42.714;23.244;2022-12-18T06:02:14;95689.00;;;5.46;80.13
11415;BME280;5763;42.714;23.244;2022-12-18T06:04:41;95705.31;;;5.32;80.61
11415;BME280;5763;42.714;23.244;2022-12-18T06:07:09;95702.22;;;5.33;80.99
11415;BME280;5763;42.714;23.244;2022-12-18T06:09:36;95707.66;;;5.33;81.26
11415;BME280;5763;42.714;23.244;2022-12-18T06:12:03;95708.78;;;5.39;81.08
11415;BME280;5763;42.714;23.244;2022-12-18T06:14:30;95701.81;;;5.45;81.06
11415;BME280;5763;42.714;23.244;2022-12-18T06:16:56;95701.41;;;5.43;81.27
11415;BME280;5763;42.714;23.244;2022-12-18T06:19:23;95698.72;;;5.40;81.31
11415;BME280;5763;42.714;23.244;2022-12-18T06:21:50;95710.72;;;5.49;81.32
11415;BME280;5763;42.714;23.244;2022-12-18T06:24:18;95718.06;;;5.52;80.89
11415;BME280;5763;42.714;23.244;2022-12-18T06:26:45;95721.56;;;5.49;80.91
11415;BME280;5763;42.714;23.244;2022-12-18T06:29:11;95719.63;;;5.50;80.16
11415;BME280;5763;42.714;23.244;2022-12-18T06:31:38;95723.47;;;5.59;80.34
11415;BME280;5763;42.714;23.244;2022-12-18T06:34:05;95716.13;;;5.56;80.22
11415;BME280;5763;42.714;23.244;2022-12-18T06:36:32;95727.34;;;5.62;80.07
11415;BME280;5763;42.714;23.244;2022-12-18T06:38:59;95728.91;;;5.59;80.31
11415;BME280;5763;42.714;23.244;2022-12-18T06:41:27;95731.66;;;5.49;79.09
11415;BME280;5763;42.714;23.244;2022-12-18T06:43:53;95734.34;;;5.56;77.90
11415;BME280;5763;42.714;23.244;2022-12-18T06:46:20;95739.81;;;5.45;77.37
11415;BME280;5763;42.714;23.244;2022-12-18T06:48:48;95738.25;;;5.48;77.54
11415;BME280;5763;42.714;23.244;2022-12-18T06:51:17;95739.78;;;5.56;76.71
11415;BME280;5763;42.714;23.244;2022-12-18T06:53:44;95743.63;;;5.69;76.53
11415;BME280;5763;42.714;23.244;2022-12-18T06:56:11;95747.91;;;5.63;75.82
11415;BME280;5763;42.714;23.244;2022-12-18T06:58:39;95752.19;;;5.64;76.20
11415;BME280;5763;42.714;23.244;2022-12-18T07:01:08;95751.44;;;5.56;75.92
11415;BME280;5763;42.714;23.244;2022-12-18T07:03:35;95755.31;;;5.48;76.27
11415;BME280;5763;42.714;23.244;2022-12-18T07:06:04;95762.69;;;5.41;76.64
11415;BME280;5763;42.714;23.244;2022-12-18T07:08:32;95759.22;;;5.30;77.38
11415;BME280;5763;42.714;23.244;2022-12-18T07:11:03;95756.88;;;5.28;77.79
11415;BME280;5763;42.714;23.244;2022-12-18T07:13:29;95772.78;;;5.33;77.53
11415;BME280;5763;42.714;23.244;2022-12-18T07:16:05;95779.75;;;5.13;78.60
11415;BME280;5763;42.714;23.244;2022-12-18T07:18:32;95762.72;;;5.09;78.96
11415;BME280;5763;42.714;23.244;2022-12-18T07:21:02;95774.75;;;5.15;79.63
11415;BME280;5763;42.714;23.244;2022-12-18T07:23:29;95767.75;;;5.21;78.90
11415;BME280;5763;42.714;23.244;2022-12-18T07:26:00;95767.38;;;5.23;78.93
11415;BME280;5763;42.714;23.244;2022-12-18T07:28:27;95772.41;;;5.28;78.62
11415;BME280;5763;42.714;23.244;2022-12-18T07:30:54;95781.31;;;5.07;78.85
11415;BME280;5763;42.714;23.244;2022-12-18T07:33:22;95776.28;;;5.02;79.18
11415;BME280;5763;42.714;23.244;2022-12-18T07:35:49;95765.44;;;5.02;79.54
11415;BME280;5763;42.714;23.244;2022-12-18T07:38:15;95779.38;;;4.94;80.15
11415;BME280;5763;42.714;23.244;2022-12-18T07:40:42;95790.22;;;4.94;80.85
11415;BME280;5763;42.714;23.244;2022-12-18T07:43:09;95780.94;;;4.84;80.95
11415;BME280;5763;42.714;23.244;2022-12-18T07:45:35;95789.84;;;4.95;80.82
11415;BME280;5763;42.714;23.244;2022-12-18T07:48:02;95779.38;;;5.01;80.56
11415;BME280;5763;42.714;23.244;2022-12-18T07:50:31;95772.41;;;4.96;80.83
11415;BME280;5763;42.714;23.244;2022-12-18T07:52:57;95783.66;;;5.02;80.86
11415;BME280;5763;42.714;23.244;2022-12-18T07:55:28;95792.94;;;5.11;80.37
11415;BME280;5763;42.714;23.244;2022-12-18T07:57:55;95792.56;;;5.09;80.48
11415;BME280;5763;42.714;23.244;2022-12-18T08:00:22;95810.00;;;5.01;80.91
11415;BME280;5763;42.714;23.244;2022-12-18T08:02:49;95805.72;;;5.00;80.71
11415;BME280;5763;42.714;23.244;2022-12-18T08:05:16;95823.19;;;5.03;80.96
11415;BME280;5763;42.714;23.244;2022-12-18T08:07:44;95818.91;;;5.02;81.09
11415;BME280;5763;42.714;23.244;2022-12-18T08:10:11;95816.59;;;5.04;80.72
11415;BME280;5763;42.714;23.244;2022-12-18T08:12:38;95817.34;;;4.97;79.60
11415;BME280;5763;42.714;23.244;2022-12-18T08:15:06;95818.13;;;4.98;79.18
11415;BME280;5763;42.714;23.244;2022-12-18T08:17:33;95821.63;;;5.05;78.27
11415;BME280;5763;42.714;23.244;2022-12-18T08:20:00;95828.22;;;5.04;78.19
11415;BME280;5763;42.714;23.244;2022-12-18T08:22:27;95818.91;;;5.09;78.35
11415;BME280;5763;42.714;23.244;2022-12-18T08:24:55;95824.31;;;4.98;78.40
11415;BME280;5763;42.714;23.244;2022-12-18T08:27:22;95846.41;;;5.04;78.20
11415;BME280;5763;42.714;23.244;2022-12-18T08:29:48;95837.91;;;5.05;78.49
11415;BME280;5763;42.714;23.244;2022-12-18T08:32:15;95825.09;;;5.02;77.90
11415;BME280;5763;42.714;23.244;2022-12-18T08:34:42;95837.53;;;5.10;78.06
11415;BME280;5763;42.714;23.244;2022-12-18T08:37:08;95838.28;;;5.21;77.95
11415;BME280;5763;42.714;23.244;2022-12-18T08:39:35;95837.50;;;5.24;77.43
11415;BME280;5763;42.714;23.244;2022-12-18T08:42:03;95846.03;;;5.30;76.51
11415;BME280;5763;42.714;23.244;2022-12-18T08:44:48;95840.63;;;5.33;75.92
11415;BME280;5763;42.714;23.244;2022-12-18T08:47:14;95845.25;;;5.47;74.56
11415;BME280;5763;42.714;23.244;2022-12-18T08:49:41;95855.34;;;5.50;73.80
11415;BME280;5763;42.714;23.244;2022-12-18T08:52:08;95855.38;;;5.43;73.89
11415;BME280;5763;42.714;23.244;2022-12-18T08:54:34;95858.84;;;5.40;74.35
11415;BME280;5763;42.714;23.244;2022-12-18T08:57:01;95846.81;;;5.41;74.29
11415;BME280;5763;42.714;23.244;2022-12-18T08:59:29;95850.69;;;5.40;73.99
11415;BME280;5763;42.714;23.244;2022-12-18T09:01:56;95848.75;;;5.33;73.11
11415;BME280;5763;42.714;23.244;2022-12-18T09:04:22;95860.00;;;5.28;72.36
11415;BME280;5763;42.714;23.244;2022-12-18T09:06:49;95849.16;;;5.18;72.59
11415;BME280;5763;42.714;23.244;2022-12-18T09:09:16;95861.16;;;5.24;71.77
11415;BME280;5763;42.714;23.244;2022-12-18T09:11:43;95848.34;;;5.24;72.20
11415;BME280;5763;42.714;23.244;2022-12-18T09:14:10;95856.50;;;5.35;72.14
11415;BME280;5763;42.714;23.244;2022-12-18T09:16:38;95834.41;;;5.36;71.55
11415;BME280;5763;42.714;23.244;2022-12-18T09:19:06;95851.47;;;5.44;71.72
11415;BME280;5763;42.714;23.244;2022-12-18T09:21:34;95846.81;;;5.51;71.27
11415;BME280;5763;42.714;23.244;2022-12-18T09:24:01;95854.19;;;5.51;70.89
11415;BME280;5763;42.714;23.244;2022-12-18T09:26:28;95857.66;;;5.58;71.38
11415;BME280;5763;42.714;23.244;2022-12-18T09:28:54;95857.25;;;5.70;70.62
11415;BME280;5763;42.714;23.244;2022-12-18T09:31:22;95858.03;;;5.78;70.96
11415;BME280;5763;42.714;23.244;2022-12-18T09:33:50;95856.09;;;5.78;70.50
11415;BME280;5763;42.714;23.244;2022-12-18T09:36:18;95862.31;;;5.72;70.75
11415;BME280;5763;42.714;23.244;2022-12-18T09:38:45;95856.09;;;5.78;70.61
11415;BME280;5763;42.714;23.244;2022-12-18T09:41:30;95857.25;;;5.70;70.71
11415;BME280;5763;42.714;23.244;2022-12-18T09:44:01;95857.66;;;5.93;70.92
11415;BME280;5763;42.714;23.244;2022-12-18T09:46:34;95868.88;;;6.06;70.53
11415;BME280;5763;42.714;23.244;2022-12-18T09:49:07;95855.66;;;6.18;70.29
11415;BME280;5763;42.714;23.244;2022-12-18T09:51:40;95859.91;;;6.19;70.36
11415;BME280;5763;42.714;23.244;2022-12-18T09:54:13;95868.44;;;6.21;69.35
11415;BME280;5763;42.714;23.244;2022-12-18T09:56:43;95866.91;;;6.27;67.93
11415;BME280;5763;42.714;23.244;2022-12-18T09:59:19;95852.16;;;6.14;68.23
11415;BME280;5763;42.714;23.244;2022-12-18T10:01:47;95860.28;;;6.21;67.37
11415;BME280;5763;42.714;23.244;2022-12-18T10:04:16;95846.72;;;6.14;67.37
11415;BME280;5763;42.714;23.244;2022-12-18T10:06:47;95855.31;;;5.99;67.31
11415;BME280;5763;42.714;23.244;2022-12-18T10:09:23;95856.53;;;5.84;67.89
11415;BME280;5763;42.714;23.244;2022-12-18T10:12:00;95847.56;;;5.90;67.99
11415;BME280;5763;42.714;23.244;2022-12-18T10:14:35;95852.63;;;5.88;69.04
11415;BME280;5763;42.714;23.244;2022-12-18T10:17:12;95853.34;;;6.06;69.11
11415;BME280;5763;42.714;23.244;2022-12-18T10:19:45;95850.59;;;6.27;69.60
11415;BME280;5763;42.714;23.244;2022-12-18T10:22:32;95853.63;;;6.36;68.82
11415;BME280;5763;42.714;23.244;2022-12-18T10:25:03;95852.81;;;6.50;68.50
11415;BME280;5763;42.714;23.244;2022-12-18T10:27:33;95854.31;;;6.61;69.33
11415;BME280;5763;42.714;23.244;2022-12-18T10:30:01;95861.38;;;6.45;67.01
11415;BME280;5763;42.714;23.244;2022-12-18T10:32:30;95859.84;;;6.40;66.86
11415;BME280;5763;42.714;23.244;2022-12-18T10:34:59;95861.38;;;6.48;67.33
11415;BME280;5763;42.714;23.244;2022-12-18T10:37:27;95861.38;;;6.41;66.05
11415;BME280;5763;42.714;23.244;2022-12-18T10:40:10;95867.56;;;6.52;66.47
11415;BME280;5763;42.714;23.244;2022-12-18T10:42:38;95858.25;;;6.53;66.06
11415;BME280;5763;42.714;23.244;2022-12-18T10:45:09;95864.44;;;6.54;65.62
11415;BME280;5763;42.714;23.244;2022-12-18T10:47:42;95856.69;;;6.52;66.46
11415;BME280;5763;42.714;23.244;2022-12-18T10:50:23;95861.34;;;6.55;65.47
11415;BME280;5763;42.714;23.244;2022-12-18T10:52:55;95863.31;;;6.48;64.83
11415;BME280;5763;42.714;23.244;2022-12-18T10:55:22;95860.97;;;6.46;64.02
11415;BME280;5763;42.714;23.244;2022-12-18T10:57:49;95861.44;;;6.34;63.58
11415;BME280;5763;42.714;23.244;2022-12-18T11:00:24;95865.66;;;6.42;64.34
11415;BME280;5763;42.714;23.244;2022-12-18T11:02:53;95862.53;;;6.54;63.93
11415;BME280;5763;42.714;23.244;2022-12-18T11:05:30;95852.41;;;6.55;63.90
11415;BME280;5763;42.714;23.244;2022-12-18T11:07:58;95840.78;;;6.51;64.28
11415;BME280;5763;42.714;23.244;2022-12-18T11:10:31;95854.72;;;6.56;63.80
11415;BME280;5763;42.714;23.244;2022-12-18T11:13:10;95850.44;;;6.66;64.09
11415;BME280;5763;42.714;23.244;2022-12-18T11:15:40;95856.25;;;6.68;64.51
11415;BME280;5763;42.714;23.244;2022-12-18T11:18:16;95855.09;;;6.62;64.76
11415;BME280;5763;42.714;23.244;2022-12-18T11:20:53;95858.59;;;6.66;64.94
11415;BME280;5763;42.714;23.244;2022-12-18T11:23:22;95860.53;;;6.65;64.57
11415;BME280;5763;42.714;23.244;2022-12-18T11:25:53;95867.53;;;6.59;64.15
11415;BME280;5763;42.714;23.244;2022-12-18T11:28:34;95872.19;;;6.62;63.69
11415;BME280;5763;42.714;23.244;2022-12-18T11:31:22;95870.63;;;6.61;61.68
11415;BME280;5763;42.714;23.244;2022-12-18T11:34:00;95868.72;;;6.58;62.71
11415;BME280;5763;42.714;23.244;2022-12-18T11:36:35;95863.28;;;6.58;62.67
11415;BME280;5763;42.714;23.244;2022-12-18T11:39:12;95846.19;;;6.54;63.45
11415;BME280;5763;42.714;23.244;2022-12-18T11:41:48;95866.00;;;6.58;63.07
11415;BME280;5763;42.714;23.244;2022-12-18T11:44:42;95866.41;;;6.53;63.78
11415;BME280;5763;42.714;23.244;2022-12-18T11:47:18;95870.69;;;6.51;64.50
11415;BME280;5763;42.714;23.244;2022-12-18T11:49:49;95871.06;;;6.53;65.16
11415;BME280;5763;42.714;23.244;2022-12-18T11:52:21;95864.44;;;6.54;65.87
11415;BME280;5763;42.714;23.244;2022-12-18T11:54:53;95864.44;;;6.57;65.74
11415;BME280;5763;42.714;23.244;2022-12-18T11:57:33;95849.69;;;6.55;65.25
11415;BME280;5763;42.714;23.244;2022-12-18T12:00:13;95848.94;;;6.54;65.31
11415;BME280;5763;42.714;23.244;2022-12-18T12:03:11;95856.28;;;6.57;65.14
11415;BME280;5763;42.714;23.244;2022-12-18T12:05:49;95856.69;;;6.49;64.44
11415;BME280;5763;42.714;23.244;2022-12-18T12:08:33;95857.09;;;6.51;64.49
11415;BME280;5763;42.714;23.244;2022-12-18T12:11:09;95859.41;;;6.52;64.90
11415;BME280;5763;42.714;23.244;2022-12-18T12:13:46;95855.91;;;6.55;64.83
11415;BME280;5763;42.714;23.244;2022-12-18T12:16:21;95850.84;;;6.57;65.04
11415;BME280;5763;42.714;23.244;2022-12-18T12:19:05;95862.06;;;6.66;64.77
11415;BME280;5763;42.714;23.244;2022-12-18T12:21:39;95861.72;;;6.61;64.59
11415;BME280;5763;42.714;23.244;2022-12-18T12:24:22;95859.38;;;6.59;64.29
11415;BME280;5763;42.714;23.244;2022-12-18T12:27:00;95860.16;;;6.56;64.70
11415;BME280;5763;42.714;23.244;2022-12-18T12:29:42;95858.97;;;6.64;64.96
11415;BME280;5763;42.714;23.244;2022-12-18T12:32:31;95862.84;;;6.70;65.27
11415;BME280;5763;42.714;23.244;2022-12-18T12:35:11;95862.81;;;6.74;64.79
11415;BME280;5763;42.714;23.244;2022-12-18T12:37:49;95856.22;;;6.71;63.79
11415;BME280;5763;42.714;23.244;2022-12-18T12:40:26;95850.81;;;6.68;64.18
11415;BME280;5763;42.714;23.244;2022-12-18T12:42:56;95856.19;;;6.75;64.47
11415;BME280;5763;42.714;23.244;2022-12-18T12:45:43;95861.69;;;6.68;65.40
11415;BME280;5763;42.714;23.244;2022-12-18T12:48:21;95865.91;;;6.72;66.48
11415;BME280;5763;42.714;23.244;2022-12-18T12:50:52;95879.94;;;6.67;64.54
11415;BME280;5763;42.714;23.244;2022-12-18T12:53:26;95875.38;;;6.47;65.07
11415;BME280;5763;42.714;23.244;2022-12-18T12:55:57;95867.59;;;6.45;66.10
11415;BME280;5763;42.714;23.244;2022-12-18T12:58:31;95881.56;;;6.51;65.91
11415;BME280;5763;42.714;23.244;2022-12-18T13:01:09;95874.97;;;6.48;65.57
11415;BME280;5763;42.714;23.244;2022-12-18T13:03:51;95880.78;;;6.50;65.92
11415;BME280;5763;42.714;23.244;2022-12-18T13:06:29;95877.66;;;6.55;65.08
11415;BME280;5763;42.714;23.244;2022-12-18T13:09:01;95887.75;;;6.55;65.25
11415;BME280;5763;42.714;23.244;2022-12-18T13:11:36;95890.94;;;6.36;64.87
11415;BME280;5763;42.714;23.244;2022-12-18T13:14:24;95882.38;;;6.44;65.02
11415;BME280;5763;42.714;23.244;2022-12-18T13:17:14;95891.38;;;6.20;65.42
11415;BME280;5763;42.714;23.244;2022-12-18T13:19:49;95901.47;;;6.23;65.92
11415;BME280;5763;42.714;23.244;2022-12-18T13:22:22;95901.06;;;6.28;65.88
11415;BME280;5763;42.714;23.244;2022-12-18T13:24:51;95908.78;;;6.40;65.53
11415;BME280;5763;42.714;23.244;2022-12-18T13:27:51;95904.50;;;6.39;66.11